Time;durP1;ratioP1;P1;durP2;ratioP2;P2;SDS_P1;SDS_P2;PMS_P1;PMS_P2;Temp;Humidity;BMP_temperature;BMP_pressure;BME280_temperature;BME280_humidity;BME280_pressure;Samples;Min_cycle;Max_cycle;Signal;HPM_P1;HPM_P2
2023/05/07 00:00:20;;;;;;;19.90;11.30;;;11.00;99.90;;;;;;4805884;29;20397;-81
2023/05/07 00:02:46;;;;;;;17.08;10.30;;;11.00;99.90;;;;;;4805824;29;20462;-81
2023/05/07 00:05:12;;;;;;;18.50;11.27;;;10.90;99.90;;;;;;4806717;29;20035;-82
2023/05/07 00:07:38;;;;;;;16.02;10.32;;;10.90;99.90;;;;;;4821713;29;20082;-82
2023/05/07 00:10:06;;;;;;;18.27;11.38;;;10.90;99.90;;;;;;4804856;29;20408;-82
2023/05/07 00:12:33;;;;;;;18.58;11.70;;;10.90;99.90;;;;;;4823469;29;20125;-83
2023/05/07 00:15:02;;;;;;;20.77;12.10;;;10.80;99.90;;;;;;4823728;29;20050;-82
2023/05/07 00:17:30;;;;;;;16.70;11.27;;;10.80;99.90;;;;;;4821987;29;20049;-84
2023/05/07 00:19:55;;;;;;;18.30;11.00;;;10.80;99.90;;;;;;4818840;29;20051;-84
2023/05/07 00:22:21;;;;;;;17.95;11.07;;;11.00;99.90;;;;;;4805368;29;20054;-81
2023/05/07 00:24:47;;;;;;;18.02;11.35;;;10.80;99.90;;;;;;4805840;29;20054;-83
2023/05/07 00:27:12;;;;;;;22.05;11.13;;;10.80;99.90;;;;;;4806370;29;20050;-82
2023/05/07 00:29:38;;;;;;;18.98;10.48;;;10.80;99.90;;;;;;4805309;29;20775;-83
2023/05/07 00:32:04;;;;;;;17.38;9.77;;;10.80;99.90;;;;;;4805409;29;20138;-82
2023/05/07 00:34:30;;;;;;;18.02;9.90;;;10.80;99.90;;;;;;4819660;29;20118;-82
2023/05/07 00:36:56;;;;;;;19.05;11.02;;;10.80;99.90;;;;;;4823484;29;20445;-81
2023/05/07 00:39:21;;;;;;;18.88;10.93;;;10.80;99.90;;;;;;4821839;29;20046;-84
2023/05/07 00:41:47;;;;;;;19.48;11.77;;;10.80;99.90;;;;;;4808726;29;20059;-82
2023/05/07 00:44:14;;;;;;;17.10;10.57;;;10.80;99.90;;;;;;4804897;29;20061;-82
2023/05/07 00:46:40;;;;;;;20.95;11.48;;;10.90;99.90;;;;;;4821051;29;20086;-85
2023/05/07 00:49:07;;;;;;;22.60;13.02;;;10.80;99.90;;;;;;4808815;29;20051;-83
2023/05/07 00:51:33;;;;;;;20.13;11.75;;;10.90;99.90;;;;;;4774208;29;20059;-82
2023/05/07 00:54:01;;;;;;;18.05;11.52;;;11.10;99.90;;;;;;4789224;29;20122;-85
2023/05/07 00:56:27;;;;;;;17.58;10.90;;;10.80;99.90;;;;;;4806151;29;20066;-82
2023/05/07 00:58:53;;;;;;;15.63;10.25;;;10.80;99.90;;;;;;4774178;29;20039;-83
2023/05/07 01:01:19;;;;;;;19.75;11.68;;;10.80;99.90;;;;;;4805172;29;20520;-81
2023/05/07 01:03:45;;;;;;;20.92;12.65;;;11.00;99.90;;;;;;4802302;29;20085;-82
2023/05/07 01:06:13;;;;;;;20.70;12.07;;;10.80;99.90;;;;;;4822071;29;20081;-84
2023/05/07 01:08:40;;;;;;;20.00;12.30;;;11.10;99.90;;;;;;4807434;29;20058;-81
2023/05/07 01:11:07;;;;;;;24.23;14.18;;;10.80;99.90;;;;;;4824552;29;20069;-82
2023/05/07 01:13:35;;;;;;;18.88;12.38;;;10.80;99.90;;;;;;4812338;29;20074;-81
2023/05/07 01:16:01;;;;;;;20.25;11.65;;;11.00;99.90;;;;;;4806180;29;20386;-82
2023/05/07 01:18:27;;;;;;;22.88;14.93;;;10.90;99.90;;;;;;4817783;29;20050;-82
2023/05/07 01:20:53;;;;;;;23.23;14.10;;;10.80;99.90;;;;;;4825412;29;20110;-81
2023/05/07 01:23:19;;;;;;;23.80;13.25;;;10.80;99.90;;;;;;4791025;29;20063;-81
2023/05/07 01:25:54;;;;;;;24.42;14.55;;;10.80;99.90;;;;;;4810757;29;20449;-81
2023/05/07 01:28:20;;;;;;;25.23;15.02;;;11.10;99.90;;;;;;4819139;29;20076;-81
2023/05/07 01:30:53;;;;;;;27.05;15.68;;;10.80;99.90;;;;;;4818894;29;20062;-82
2023/05/07 01:33:22;;;;;;;27.45;16.25;;;10.80;99.90;;;;;;4822278;29;20082;-81
2023/05/07 01:35:52;;;;;;;26.67;15.45;;;10.80;99.90;;;;;;4819029;29;20050;-81
2023/05/07 01:38:20;;;;;;;29.20;16.63;;;10.90;99.90;;;;;;4829157;29;20085;-81
2023/05/07 01:40:46;;;;;;;27.73;16.67;;;10.80;99.90;;;;;;4821390;29;20042;-81
2023/05/07 01:43:12;;;;;;;28.70;16.30;;;10.90;99.90;;;;;;4821767;29;20643;-81
2023/05/07 01:45:39;;;;;;;31.02;17.38;;;10.80;99.90;;;;;;4826531;29;20047;-81
2023/05/07 01:48:05;;;;;;;25.58;15.00;;;10.80;99.90;;;;;;4826525;29;20054;-82
2023/05/07 01:50:32;;;;;;;26.90;15.65;;;10.80;99.90;;;;;;4821722;29;20055;-80
2023/05/07 01:52:57;;;;;;;28.45;16.83;;;10.80;99.90;;;;;;4823804;29;20042;-79
2023/05/07 01:55:23;;;;;;;25.42;16.05;;;10.80;99.90;;;;;;4830294;29;20415;-79
2023/05/07 01:57:49;;;;;;;25.65;15.75;;;10.80;99.90;;;;;;4816279;29;20042;-79
2023/05/07 02:00:15;;;;;;;24.77;15.45;;;11.00;99.90;;;;;;4812639;29;20055;-81
2023/05/07 02:02:40;;;;;;;25.67;14.50;;;10.80;99.90;;;;;;4797695;29;20050;-82
2023/05/07 02:05:06;;;;;;;33.90;17.90;;;10.80;99.90;;;;;;4817035;29;20102;-81
2023/05/07 02:07:32;;;;;;;30.48;18.55;;;10.80;99.90;;;;;;4793550;29;20039;-82
2023/05/07 02:09:58;;;;;;;30.80;18.08;;;10.80;99.90;;;;;;4829798;29;20051;-81
2023/05/07 02:12:23;;;;;;;36.45;18.48;;;11.00;99.90;;;;;;4808040;29;20082;-81
2023/05/07 02:14:49;;;;;;;33.42;19.15;;;10.90;99.90;;;;;;4805318;29;20042;-81
2023/05/07 02:17:15;;;;;;;32.65;18.00;;;10.70;99.90;;;;;;4821520;29;20444;-83
2023/05/07 02:19:41;;;;;;;31.08;17.73;;;10.80;99.90;;;;;;4795833;29;20142;-84
2023/05/07 02:22:07;;;;;;;32.58;17.98;;;10.80;99.90;;;;;;4809467;29;20051;-81
2023/05/07 02:24:33;;;;;;;28.83;17.55;;;10.80;99.90;;;;;;4808038;29;20050;-81
2023/05/07 02:26:59;;;;;;;31.88;16.77;;;10.70;99.90;;;;;;4798719;29;20058;-83
2023/05/07 02:29:24;;;;;;;26.88;16.08;;;10.70;99.90;;;;;;4811937;29;20129;-81
2023/05/07 02:31:52;;;;;;;28.30;16.77;;;10.80;99.90;;;;;;4800507;29;20053;-84
2023/05/07 02:34:18;;;;;;;33.97;18.35;;;10.80;99.90;;;;;;4827184;29;20065;-82
2023/05/07 02:36:45;;;;;;;31.63;17.27;;;10.80;99.90;;;;;;4815538;29;20457;-82
2023/05/07 02:39:12;;;;;;;32.17;18.40;;;10.80;99.90;;;;;;4817087;29;20054;-81
2023/05/07 02:41:38;;;;;;;40.28;22.55;;;11.00;99.90;;;;;;4815825;29;20046;-82
2023/05/07 02:44:04;;;;;;;37.90;20.10;;;11.10;99.90;;;;;;4814419;29;20054;-83
2023/05/07 02:46:29;;;;;;;41.15;22.10;;;10.70;99.90;;;;;;4817523;29;20487;-81
2023/05/07 02:48:55;;;;;;;37.22;20.85;;;10.70;99.90;;;;;;4813478;29;20050;-82
2023/05/07 02:51:22;;;;;;;35.80;19.42;;;10.70;99.90;;;;;;4810389;29;20096;-81
2023/05/07 02:53:48;;;;;;;36.33;20.60;;;10.70;99.90;;;;;;4818021;29;20054;-83
2023/05/07 02:56:14;;;;;;;34.35;19.80;;;10.70;99.90;;;;;;4811678;29;20057;-87
2023/05/07 02:58:40;;;;;;;40.05;23.40;;;10.90;99.90;;;;;;4808814;29;20439;-85
2023/05/07 03:01:06;;;;;;;40.40;22.77;;;10.60;99.90;;;;;;4815547;29;20187;-89
2023/05/07 03:03:32;;;;;;;40.15;22.60;;;10.60;99.90;;;;;;4814549;29;20059;-86
2023/05/07 03:05:57;;;;;;;42.35;24.08;;;11.00;99.90;;;;;;4816235;29;20118;-88
2023/05/07 03:08:24;;;;;;;36.72;20.73;;;10.60;99.90;;;;;;4815073;29;20054;-92
2023/05/07 03:10:50;;;;;;;37.15;21.50;;;10.60;99.90;;;;;;4808864;29;20046;-91
2023/05/07 03:13:15;;;;;;;37.28;22.05;;;10.50;99.90;;;;;;4829480;29;20054;-90
2023/05/07 03:15:41;;;;;;;38.17;21.38;;;10.50;99.90;;;;;;4818343;29;20046;-87
2023/05/07 03:18:07;;;;;;;34.33;19.27;;;10.40;99.90;;;;;;4818994;29;20049;-92
2023/05/07 03:20:32;;;;;;;38.72;21.20;;;10.50;99.90;;;;;;4810767;29;20054;-90
2023/05/07 03:22:58;;;;;;;38.03;21.17;;;10.40;99.90;;;;;;4807321;29;20130;-93
2023/05/07 03:25:24;;;;;;;46.05;22.80;;;10.50;99.90;;;;;;4809842;29;20043;-88
2023/05/07 03:27:49;;;;;;;39.90;22.05;;;10.40;99.90;;;;;;4824740;29;20062;-86
2023/05/07 03:30:15;;;;;;;38.53;20.92;;;10.40;99.90;;;;;;4812197;29;20050;-92
2023/05/07 03:32:41;;;;;;;44.30;24.10;;;10.40;99.90;;;;;;4836237;29;20046;-86
2023/05/07 03:35:07;;;;;;;42.03;23.75;;;10.40;99.90;;;;;;4824831;29;20111;-86
2023/05/07 03:37:33;;;;;;;43.20;24.10;;;10.40;99.90;;;;;;4830138;29;20067;-86
2023/05/07 03:39:58;;;;;;;38.88;22.48;;;10.40;99.90;;;;;;4827865;29;20054;-86
2023/05/07 03:42:25;;;;;;;44.60;25.38;;;10.40;99.90;;;;;;4852327;29;20052;-83
2023/05/07 03:44:50;;;;;;;45.53;24.83;;;10.60;99.90;;;;;;4842366;29;20054;-88
2023/05/07 03:47:16;;;;;;;49.03;24.65;;;10.60;99.90;;;;;;4819574;29;20125;-89
2023/05/07 03:49:42;;;;;;;46.75;25.55;;;10.40;99.90;;;;;;4823163;29;20056;-86
2023/05/07 03:52:07;;;;;;;46.28;24.27;;;10.30;99.90;;;;;;4821417;29;20049;-87
2023/05/07 03:54:33;;;;;;;48.95;25.50;;;10.40;99.90;;;;;;4831828;29;20099;-90
2023/05/07 03:56:59;;;;;;;49.25;26.15;;;10.30;99.90;;;;;;4811158;29;20174;-88
2023/05/07 03:59:25;;;;;;;41.83;24.13;;;10.30;99.90;;;;;;4825023;29;20047;-85
2023/05/07 04:01:50;;;;;;;45.00;24.98;;;10.30;99.90;;;;;;4835970;29;20433;-93
2023/05/07 04:04:16;;;;;;;38.60;22.02;;;10.30;99.90;;;;;;4806817;29;20053;-91
2023/05/07 04:06:42;;;;;;;32.47;20.15;;;10.30;99.90;;;;;;4798357;29;20567;-89
2023/05/07 04:09:08;;;;;;;29.40;16.92;;;10.40;99.90;;;;;;4814962;29;20412;-91
2023/05/07 04:11:35;;;;;;;28.40;17.25;;;10.30;99.90;;;;;;4829290;29;20046;-92
2023/05/07 04:14:01;;;;;;;29.73;17.90;;;10.50;99.90;;;;;;4809425;29;20051;-92
2023/05/07 04:16:27;;;;;;;27.80;16.63;;;10.20;99.90;;;;;;4814068;29;20052;-90
2023/05/07 04:18:52;;;;;;;34.20;19.60;;;10.20;99.90;;;;;;4825182;29;20082;-92
2023/05/07 04:21:20;;;;;;;35.67;20.25;;;10.10;99.90;;;;;;4812194;29;20039;-88
2023/05/07 04:23:47;;;;;;;35.08;20.27;;;10.20;99.90;;;;;;4794148;29;20480;-90
2023/05/07 04:26:13;;;;;;;37.47;21.20;;;10.10;99.90;;;;;;4807929;29;20051;-86
2023/05/07 04:28:40;;;;;;;37.47;20.88;;;10.10;99.90;;;;;;4823798;29;20226;-88
2023/05/07 04:31:06;;;;;;;33.83;20.27;;;10.10;99.90;;;;;;4818170;29;20051;-89
2023/05/07 04:33:33;;;;;;;32.47;18.48;;;10.10;99.90;;;;;;4819751;29;20049;-92
2023/05/07 04:36:02;;;;;;;35.03;19.77;;;10.10;99.90;;;;;;4823227;29;20051;-90
2023/05/07 04:38:31;;;;;;;31.13;18.45;;;10.10;99.90;;;;;;4816841;29;20046;-90
2023/05/07 04:41:02;;;;;;;35.65;21.00;;;10.20;99.90;;;;;;4817190;29;20585;-90
2023/05/07 04:43:27;;;;;;;33.38;18.95;;;10.20;99.90;;;;;;4817954;29;20047;-90
2023/05/07 04:45:53;;;;;;;35.15;19.70;;;10.10;99.90;;;;;;4814194;29;20519;-87
2023/05/07 04:48:20;;;;;;;35.38;20.10;;;10.70;99.90;;;;;;4817048;29;20063;-82
2023/05/07 04:50:49;;;;;;;35.58;18.90;;;10.70;99.90;;;;;;4817147;29;20082;-89
2023/05/07 04:53:15;;;;;;;35.10;20.35;;;10.10;99.90;;;;;;4830898;29;20051;-83
2023/05/07 04:55:41;;;;;;;42.35;21.83;;;10.10;99.90;;;;;;4820399;29;20430;-89
2023/05/07 04:58:07;;;;;;;40.95;23.48;;;10.10;99.90;;;;;;4802614;29;20057;-86
2023/05/07 05:00:33;;;;;;;43.97;22.88;;;10.20;99.90;;;;;;4820418;29;20060;-85
2023/05/07 05:02:59;;;;;;;39.78;22.50;;;10.10;99.90;;;;;;4820482;29;20050;-86
2023/05/07 05:05:25;;;;;;;43.67;24.55;;;10.20;99.90;;;;;;4813014;29;20054;-90
2023/05/07 05:07:51;;;;;;;45.08;26.15;;;10.10;99.90;;;;;;4812365;29;20050;-91
2023/05/07 05:10:17;;;;;;;46.10;27.20;;;10.30;99.90;;;;;;4815937;29;20062;-83
2023/05/07 05:12:43;;;;;;;49.63;27.90;;;10.30;99.90;;;;;;4836527;29;20058;-84
2023/05/07 05:15:10;;;;;;;49.80;26.70;;;10.10;99.90;;;;;;4840756;29;20046;-92
2023/05/07 05:17:36;;;;;;;40.60;23.33;;;10.10;99.90;;;;;;4841644;29;20051;-87
2023/05/07 05:20:02;;;;;;;42.20;24.73;;;10.10;99.90;;;;;;4844232;29;20077;-82
2023/05/07 05:22:30;;;;;;;45.75;25.42;;;10.10;99.90;;;;;;4835153;29;20050;-82
2023/05/07 05:24:56;;;;;;;45.05;25.58;;;10.20;99.90;;;;;;4810608;29;20043;-90
2023/05/07 05:27:22;;;;;;;47.22;26.00;;;10.20;99.90;;;;;;4823326;29;20139;-92
2023/05/07 05:29:47;;;;;;;38.72;21.17;;;10.10;99.90;;;;;;4838918;29;20072;-89
2023/05/07 05:32:13;;;;;;;40.88;23.75;;;10.40;99.90;;;;;;4813931;29;20043;-92
2023/05/07 05:34:39;;;;;;;46.97;25.05;;;10.20;99.90;;;;;;4829337;29;20457;-84
2023/05/07 05:37:05;;;;;;;43.85;23.45;;;10.70;99.90;;;;;;4838950;29;20412;-88
2023/05/07 05:39:31;;;;;;;37.35;21.95;;;10.20;99.90;;;;;;4833874;29;20095;-93
2023/05/07 05:41:56;;;;;;;42.90;24.48;;;10.20;99.90;;;;;;4827605;29;20389;-86
2023/05/07 05:44:22;;;;;;;44.80;24.60;;;10.60;99.90;;;;;;4781661;29;20093;-89
2023/05/07 05:46:49;;;;;;;43.05;23.95;;;10.10;99.90;;;;;;4813822;29;20085;-87
2023/05/07 05:49:15;;;;;;;46.83;24.65;;;10.10;99.90;;;;;;4796424;29;20090;-85
2023/05/07 05:51:41;;;;;;;41.13;22.77;;;10.10;99.90;;;;;;4818281;29;20038;-91
2023/05/07 05:54:07;;;;;;;41.92;24.33;;;10.20;99.90;;;;;;4813792;29;20055;-91
2023/05/07 05:56:33;;;;;;;41.05;23.95;;;10.10;99.90;;;;;;4819407;29;20046;-87
2023/05/07 05:58:58;;;;;;;40.35;24.45;;;10.20;99.90;;;;;;4819990;29;20074;-87
2023/05/07 06:01:25;;;;;;;40.20;23.67;;;10.10;99.90;;;;;;4818017;29;20051;-84
2023/05/07 06:03:51;;;;;;;40.58;24.15;;;10.10;99.90;;;;;;4804130;29;20458;-84
2023/05/07 06:06:17;;;;;;;44.33;24.02;;;10.10;99.90;;;;;;4815067;29;20086;-84
2023/05/07 06:08:43;;;;;;;42.83;22.50;;;10.10;99.90;;;;;;4832796;29;20419;-84
2023/05/07 06:11:08;;;;;;;43.92;25.08;;;10.10;99.90;;;;;;4814486;29;20050;-82
2023/05/07 06:13:34;;;;;;;40.05;22.80;;;10.10;99.90;;;;;;4819757;29;20462;-84
2023/05/07 06:16:00;;;;;;;40.85;22.90;;;10.70;99.90;;;;;;4812007;29;20055;-83
2023/05/07 06:18:25;;;;;;;40.38;23.95;;;10.50;99.90;;;;;;4815071;29;20047;-82
2023/05/07 06:20:52;;;;;;;39.08;22.35;;;10.10;99.90;;;;;;4808085;29;20133;-82
2023/05/07 06:23:18;;;;;;;33.83;19.70;;;10.20;99.90;;;;;;4819772;29;20055;-82
2023/05/07 06:25:50;;;;;;;31.02;18.40;;;10.40;99.90;;;;;;4816545;29;20109;-83
2023/05/07 06:28:15;;;;;;;37.15;22.05;;;10.40;99.90;;;;;;4797718;29;20129;-83
2023/05/07 06:30:41;;;;;;;33.63;18.92;;;10.80;99.90;;;;;;4810732;29;20159;-83
2023/05/07 06:33:07;;;;;;;34.17;19.13;;;10.40;99.90;;;;;;4808806;29;20050;-82
2023/05/07 06:35:32;;;;;;;33.97;17.98;;;10.30;99.90;;;;;;4823724;29;20132;-81
2023/05/07 06:37:59;;;;;;;35.00;19.55;;;10.30;99.90;;;;;;4818361;29;20423;-81
2023/05/07 06:40:25;;;;;;;34.13;19.38;;;10.40;99.90;;;;;;4810982;29;20065;-80
2023/05/07 06:42:51;;;;;;;30.40;18.75;;;10.40;99.90;;;;;;4807119;29;20051;-82
2023/05/07 06:45:16;;;;;;;32.63;19.30;;;10.50;99.90;;;;;;4813067;29;20526;-82
2023/05/07 06:47:42;;;;;;;34.50;20.48;;;10.50;99.90;;;;;;4816831;29;20062;-83
2023/05/07 06:50:09;;;;;;;35.25;19.90;;;10.50;99.90;;;;;;4829159;29;20047;-82
2023/05/07 06:52:35;;;;;;;28.33;17.27;;;10.50;99.90;;;;;;4815061;29;20058;-83
2023/05/07 06:55:01;;;;;;;32.75;18.88;;;10.60;99.90;;;;;;4811959;29;20103;-82
2023/05/07 06:57:26;;;;;;;30.17;18.35;;;10.60;99.90;;;;;;4817504;29;20112;-84
2023/05/07 06:59:52;;;;;;;31.17;18.25;;;10.60;99.90;;;;;;4816110;29;20078;-82
2023/05/07 07:02:18;;;;;;;33.72;18.20;;;10.90;99.90;;;;;;4809238;29;20050;-82
2023/05/07 07:04:44;;;;;;;32.83;20.02;;;10.60;99.90;;;;;;4800481;29;20057;-83
2023/05/07 07:07:10;;;;;;;34.38;19.85;;;10.60;99.90;;;;;;4815081;29;20066;-82
2023/05/07 07:09:36;;;;;;;33.75;19.42;;;10.60;99.90;;;;;;4814107;29;20046;-83
2023/05/07 07:12:02;;;;;;;37.13;22.73;;;10.70;99.90;;;;;;4820616;29;20047;-83
2023/05/07 07:14:27;;;;;;;36.55;21.92;;;10.70;99.90;;;;;;4812476;29;20031;-80
2023/05/07 07:16:53;;;;;;;36.17;22.80;;;10.70;99.90;;;;;;4814190;29;20054;-82
2023/05/07 07:19:20;;;;;;;43.13;24.77;;;10.70;99.90;;;;;;4810341;29;20050;-81
2023/05/07 07:21:45;;;;;;;40.80;23.55;;;10.70;99.90;;;;;;4812017;29;20424;-81
2023/05/07 07:24:11;;;;;;;39.35;24.00;;;10.70;99.90;;;;;;4815273;29;20050;-80
2023/05/07 07:26:37;;;;;;;43.08;25.58;;;10.70;99.90;;;;;;4823350;29;20081;-80
2023/05/07 07:29:03;;;;;;;42.17;24.65;;;10.70;99.90;;;;;;4799825;29;20617;-81
2023/05/07 07:31:29;;;;;;;40.88;23.70;;;10.70;99.90;;;;;;4812065;29;20500;-83
2023/05/07 07:33:55;;;;;;;40.30;23.33;;;10.70;99.90;;;;;;4814030;29;20081;-81
2023/05/07 07:36:20;;;;;;;41.17;24.27;;;10.70;99.90;;;;;;4810513;29;20129;-80
2023/05/07 07:38:46;;;;;;;40.13;24.70;;;10.70;99.90;;;;;;4817029;29;20086;-81
2023/05/07 07:41:12;;;;;;;40.17;23.20;;;10.70;99.90;;;;;;4793140;29;20038;-82
2023/05/07 07:43:37;;;;;;;42.65;24.38;;;10.70;99.90;;;;;;4799991;29;20042;-81
2023/05/07 07:46:03;;;;;;;36.65;22.13;;;10.80;99.90;;;;;;4827822;29;20538;-81
2023/05/07 07:48:29;;;;;;;37.72;22.70;;;10.80;99.90;;;;;;4816608;29;20042;-82
2023/05/07 07:50:55;;;;;;;33.78;20.98;;;10.70;99.90;;;;;;4810483;29;20055;-81
2023/05/07 07:53:20;;;;;;;30.05;18.95;;;10.50;99.90;;;;;;4816801;29;20042;-81
2023/05/07 07:55:46;;;;;;;33.60;20.67;;;11.00;99.90;;;;;;4809023;29;20039;-83
2023/05/07 07:58:12;;;;;;;26.88;16.95;;;10.80;99.90;;;;;;4807832;29;20114;-80
2023/05/07 08:00:37;;;;;;;26.98;17.48;;;10.80;99.90;;;;;;4807687;29;20042;-80
2023/05/07 08:03:03;;;;;;;25.92;16.25;;;10.80;99.90;;;;;;4817859;29;20167;-82
2023/05/07 08:05:29;;;;;;;26.67;16.63;;;10.80;99.90;;;;;;4812036;29;20499;-82
2023/05/07 08:07:55;;;;;;;34.03;18.80;;;10.90;99.90;;;;;;4815256;29;20057;-83
2023/05/07 08:10:21;;;;;;;27.85;17.90;;;10.90;99.90;;;;;;4798280;29;20046;-80
2023/05/07 08:12:50;;;;;;;26.15;15.93;;;10.90;99.90;;;;;;4796609;29;20039;-81
2023/05/07 08:15:16;;;;;;;27.40;17.73;;;10.90;99.90;;;;;;4812782;29;20405;-81
2023/05/07 08:17:42;;;;;;;23.67;15.38;;;11.00;99.90;;;;;;4806472;29;20053;-81
2023/05/07 08:20:08;;;;;;;31.25;19.70;;;11.00;99.90;;;;;;4813365;29;20135;-82
2023/05/07 08:22:36;;;;;;;29.88;18.02;;;11.00;99.90;;;;;;4815359;29;20164;-81
2023/05/07 08:25:02;;;;;;;32.60;18.60;;;11.00;99.90;;;;;;4810194;29;20058;-80
2023/05/07 08:27:27;;;;;;;34.63;20.83;;;11.00;99.90;;;;;;4793716;29;20569;-82
2023/05/07 08:29:53;;;;;;;29.40;19.00;;;11.10;99.90;;;;;;4815415;29;20050;-81
2023/05/07 08:32:19;;;;;;;28.25;18.08;;;11.20;99.90;;;;;;4811764;29;20564;-82
2023/05/07 08:34:45;;;;;;;29.13;17.65;;;10.90;99.90;;;;;;4805658;29;20149;-81
2023/05/07 08:37:10;;;;;;;31.90;19.15;;;11.20;99.90;;;;;;4824980;29;20053;-81
2023/05/07 08:39:36;;;;;;;28.27;18.20;;;11.40;99.90;;;;;;4803178;29;20051;-82
2023/05/07 08:42:07;;;;;;;31.98;19.88;;;11.70;99.90;;;;;;4800178;29;20054;-82
2023/05/07 08:44:34;;;;;;;30.05;19.02;;;11.40;99.90;;;;;;4812533;29;20050;-83
2023/05/07 08:47:01;;;;;;;28.85;17.52;;;11.50;99.90;;;;;;4814707;29;20043;-82
2023/05/07 08:49:30;;;;;;;28.25;18.35;;;11.50;99.90;;;;;;4822769;29;20141;-84
2023/05/07 08:51:56;;;;;;;30.20;18.75;;;11.60;99.90;;;;;;4812777;29;20389;-81
2023/05/07 08:54:22;;;;;;;31.63;19.38;;;11.60;99.90;;;;;;4814835;29;20058;-81
2023/05/07 08:56:47;;;;;;;29.02;17.67;;;11.70;99.90;;;;;;4816771;29;20048;-83
2023/05/07 08:59:13;;;;;;;27.70;16.08;;;11.70;99.90;;;;;;4812900;29;20095;-81
2023/05/07 09:01:39;;;;;;;23.30;14.68;;;11.50;99.90;;;;;;4825402;29;20109;-81
2023/05/07 09:04:06;;;;;;;24.17;14.75;;;12.00;99.90;;;;;;4819023;29;20051;-81
2023/05/07 09:06:32;;;;;;;25.90;16.00;;;12.10;99.90;;;;;;4813893;29;20055;-81
2023/05/07 09:09:00;;;;;;;23.10;14.52;;;12.20;99.90;;;;;;4811250;29;20417;-83
2023/05/07 09:11:27;;;;;;;22.33;14.63;;;12.30;99.90;;;;;;4817724;29;20083;-82
2023/05/07 09:13:57;;;;;;;21.63;13.50;;;12.30;99.90;;;;;;4800439;29;20441;-81
2023/05/07 09:16:25;;;;;;;24.13;15.70;;;12.40;99.90;;;;;;4786543;29;20106;-81
2023/05/07 09:18:54;;;;;;;22.60;13.40;;;12.40;99.90;;;;;;4810489;29;20516;-81
2023/05/07 09:21:22;;;;;;;18.95;11.65;;;12.50;99.90;;;;;;4811782;29;20039;-82
2023/05/07 09:23:50;;;;;;;18.20;11.07;;;12.60;99.90;;;;;;4808658;29;20105;-81
2023/05/07 09:26:16;;;;;;;19.15;12.48;;;12.80;99.90;;;;;;4793257;29;20091;-82
2023/05/07 09:28:42;;;;;;;18.75;11.02;;;12.80;99.90;;;;;;4824087;29;20141;-82
2023/05/07 09:31:09;;;;;;;21.05;12.20;;;12.80;99.90;;;;;;4808155;29;20065;-80
2023/05/07 09:33:35;;;;;;;18.73;10.98;;;12.80;99.90;;;;;;4811646;29;20111;-82
2023/05/07 09:36:05;;;;;;;18.55;11.85;;;13.00;99.90;;;;;;4818488;29;20050;-81
2023/05/07 09:38:32;;;;;;;20.75;12.45;;;12.90;99.90;;;;;;4811804;29;20057;-85
2023/05/07 09:41:06;;;;;;;19.35;11.60;;;13.00;99.90;;;;;;4819327;29;20042;-81
2023/05/07 09:43:34;;;;;;;21.98;12.23;;;13.20;99.90;;;;;;4808392;29;20046;-82
2023/05/07 09:46:03;;;;;;;18.58;11.15;;;13.20;99.90;;;;;;4812674;29;20496;-82
2023/05/07 09:48:29;;;;;;;18.65;12.10;;;13.20;99.90;;;;;;4819830;29;20046;-85
2023/05/07 09:51:02;;;;;;;17.25;11.10;;;13.30;99.90;;;;;;4813403;29;20222;-81
2023/05/07 09:53:30;;;;;;;20.58;13.10;;;13.50;99.90;;;;;;4809449;29;20065;-82
2023/05/07 09:55:57;;;;;;;20.70;13.00;;;13.60;99.90;;;;;;4821349;29;20042;-85
2023/05/07 09:58:23;;;;;;;19.58;11.98;;;13.60;99.90;;;;;;4806363;29;20062;-82
2023/05/07 10:00:51;;;;;;;15.05;10.55;;;13.60;99.90;;;;;;4823244;29;20073;-82
2023/05/07 10:03:18;;;;;;;20.15;11.95;;;13.90;99.90;;;;;;4816874;29;20046;-82
2023/05/07 10:05:47;;;;;;;18.98;11.68;;;13.90;99.90;;;;;;4815700;29;20507;-83
2023/05/07 10:08:14;;;;;;;15.93;10.93;;;13.90;99.90;;;;;;4815129;29;20424;-83
2023/05/07 10:10:41;;;;;;;16.00;10.48;;;14.00;99.90;;;;;;4800468;29;20051;-83
2023/05/07 10:13:10;;;;;;;17.27;10.35;;;13.90;99.90;;;;;;4815869;29;20081;-83
2023/05/07 10:15:36;;;;;;;15.63;10.65;;;14.00;99.90;;;;;;4804331;29;20059;-83
2023/05/07 10:18:06;;;;;;;15.05;9.38;;;14.00;99.90;;;;;;4816052;29;20050;-82
2023/05/07 10:20:33;;;;;;;15.35;9.32;;;14.20;99.90;;;;;;4808017;29;20050;-84
2023/05/07 10:23:01;;;;;;;11.70;8.43;;;14.20;99.90;;;;;;4816105;29;20047;-83
2023/05/07 10:25:30;;;;;;;14.70;8.57;;;14.30;99.90;;;;;;4809216;29;20046;-83
2023/05/07 10:28:03;;;;;;;14.77;9.32;;;14.50;99.90;;;;;;4829380;29;20427;-82
2023/05/07 10:30:53;;;;;;;12.35;8.45;;;14.60;99.90;;;;;;4809187;29;20377;-83
2023/05/07 10:33:25;;;;;;;13.40;8.68;;;14.80;99.90;;;;;;4812128;29;20114;-82
2023/05/07 10:35:55;;;;;;;12.68;7.88;;;15.00;99.90;;;;;;4816891;29;20077;-82
2023/05/07 10:38:21;;;;;;;13.55;8.90;;;15.30;99.90;;;;;;4816151;29;20047;-82
2023/05/07 10:40:47;;;;;;;13.63;9.82;;;15.20;99.90;;;;;;4821519;29;20045;-82
2023/05/07 10:43:12;;;;;;;15.85;9.75;;;15.10;99.90;;;;;;4817081;29;20046;-82
2023/05/07 10:45:38;;;;;;;12.25;8.05;;;15.10;99.90;;;;;;4812925;29;20047;-83
2023/05/07 10:48:17;;;;;;;13.05;8.30;;;15.20;99.90;;;;;;4798788;29;20050;-82
2023/05/07 10:50:44;;;;;;;9.48;6.65;;;15.30;99.90;;;;;;4796367;29;20114;-80
2023/05/07 10:53:28;;;;;;;14.25;9.23;;;15.50;99.90;;;;;;4809545;29;20071;-83
2023/05/07 10:56:17;;;;;;;13.02;8.45;;;15.50;99.90;;;;;;4798124;29;20046;-84
2023/05/07 10:58:42;;;;;;;11.05;7.93;;;15.60;99.90;;;;;;4770247;30;20051;-83
2023/05/07 11:01:09;;;;;;;10.77;7.53;;;15.60;99.90;;;;;;4768650;30;20056;-83
2023/05/07 11:03:35;;;;;;;11.57;8.45;;;15.60;99.90;;;;;;4768072;30;20078;-84
2023/05/07 11:06:15;;;;;;;11.80;8.57;;;15.70;99.90;;;;;;4768101;29;20051;-82
2023/05/07 11:08:54;;;;;;;13.27;9.23;;;15.70;99.90;;;;;;4768823;30;20494;-83
2023/05/07 11:11:40;;;;;;;11.20;8.18;;;15.70;99.90;;;;;;4768034;30;20417;-84
2023/05/07 11:14:05;;;;;;;12.88;8.63;;;15.90;99.90;;;;;;4770247;30;20058;-84
2023/05/07 11:16:33;;;;;;;9.63;6.90;;;15.90;99.90;;;;;;4776577;30;20056;-83
2023/05/07 11:18:59;;;;;;;10.85;8.02;;;16.10;99.90;;;;;;4768068;30;20060;-83
2023/05/07 11:21:41;;;;;;;10.60;7.70;;;16.20;99.90;;;;;;4768412;30;20056;-82
2023/05/07 11:24:10;;;;;;;11.00;8.60;;;16.50;99.90;;;;;;4758877;30;20054;-83
2023/05/07 11:26:46;;;;;;;11.98;7.85;;;16.60;99.90;;;;;;4767767;30;20051;-82
2023/05/07 11:29:20;;;;;;;11.05;7.97;;;16.50;99.90;;;;;;4753524;30;20071;-83
2023/05/07 11:31:52;;;;;;;12.30;7.78;;;16.60;99.90;;;;;;4771600;30;20056;-83
2023/05/07 11:34:26;;;;;;;12.45;8.18;;;16.60;99.90;;;;;;4778616;30;20589;-83
2023/05/07 11:36:52;;;;;;;9.57;6.35;;;16.50;99.90;;;;;;4808578;29;20195;-83
2023/05/07 11:39:24;;;;;;;9.50;6.68;;;16.80;99.90;;;;;;4816803;29;20054;-83
2023/05/07 11:41:50;;;;;;;10.05;7.28;;;16.90;99.90;;;;;;4816809;29;20053;-82
2023/05/07 11:44:16;;;;;;;10.98;8.30;;;16.80;99.90;;;;;;4810753;29;20051;-84
2023/05/07 11:46:45;;;;;;;9.48;6.78;;;16.90;99.90;;;;;;4816731;29;20126;-83
2023/05/07 11:49:11;;;;;;;9.57;7.10;;;17.00;99.90;;;;;;4816168;29;20046;-83
2023/05/07 11:51:37;;;;;;;9.65;6.70;;;17.10;99.90;;;;;;4806407;29;20508;-82
2023/05/07 11:54:11;;;;;;;10.68;7.47;;;17.20;99.90;;;;;;4825209;29;20051;-82
2023/05/07 11:56:37;;;;;;;11.45;8.18;;;17.00;99.90;;;;;;4791717;29;20086;-83
2023/05/07 11:59:03;;;;;;;10.68;7.68;;;16.90;99.90;;;;;;4813526;29;20065;-83
2023/05/07 12:01:28;;;;;;;9.73;6.88;;;16.90;99.90;;;;;;4824632;29;20427;-83
2023/05/07 12:03:54;;;;;;;10.57;8.20;;;17.10;99.90;;;;;;4828797;29;21045;-83
2023/05/07 12:06:20;;;;;;;10.35;7.38;;;17.10;99.90;;;;;;4792690;29;20050;-83
2023/05/07 12:08:46;;;;;;;9.73;7.20;;;17.20;99.90;;;;;;4800086;29;20042;-82
2023/05/07 12:11:25;;;;;;;8.80;6.78;;;17.30;99.90;;;;;;4814327;29;20050;-83
2023/05/07 12:13:51;;;;;;;8.60;7.03;;;17.40;99.90;;;;;;4807596;29;20089;-83
2023/05/07 12:16:17;;;;;;;8.98;7.13;;;17.30;99.90;;;;;;4812797;29;20085;-83
2023/05/07 12:18:44;;;;;;;8.93;7.10;;;17.60;99.90;;;;;;4808131;29;20047;-83
2023/05/07 12:21:11;;;;;;;7.70;6.25;;;17.30;99.90;;;;;;4825387;29;20488;-81
2023/05/07 12:23:38;;;;;;;10.60;7.15;;;17.80;99.90;;;;;;4815355;29;20114;-80
2023/05/07 12:26:04;;;;;;;12.43;9.18;;;17.90;99.90;;;;;;4807320;29;20042;-83